Startpagina
METAR-TAF:

METAR-TAF

Vliegvelden :

Productieplatform

Euro, Nederland

breedte: 51-59-52N, lengte: 3-16-30E, hoogte: 18 m

Actueel weer

Dit bericht is 25 minuten geleden gemaakt, om 01:25 UTC
Wind 13 kt uit het zuidzuidoosten
Temperatuur 11°C
Vochtigheid 82%
Druk 1001 hPa
Zicht 10 km of meer

METAR: EHSA 250125Z AUTO 16013KT 9999 ///////// 11/08 Q1001 W08/H7

Tijdstip: 03:50 (01:50 UTC)


TAF: ontbreekt

Waarnemingen en weersverwachtingen van meer dan 4000 vliegvelden (METAR en TAF).

De beschikbare stations zijn de gele en rode punten op de kaart.

Ga met uw muis naar het station om de naam te zien.

Klik dan om waarnemingen en weersverwachtingen te zien.

kaart wijzigen: klik op de groene knoppen met een zwart kruis om in te zoomen, op de groene knop met een streepje om uit te zoomen of op de groene pijlen voor aangrenzende kaarten.


METAR-TAF: